x

Nantucket 54nm Southeast Of Nantucket (44008) Wave Buoy

10:50am - Mon 2nd Mar 2015 All times are EST. -5 hours from GMT.

  • Sig Wave height 7.9ft
  • Swell Direction
  • Peak Period 10s
  • Average Period 6s
  • Wind
    27mph, 34mph gusts
  • Sea Temp 43°f
  • Air Temp 35°f
  • Sea Pressure 1012.8mb
  • Nantucket 54nm Southeast Of Nantucket
  • Nantucket 54nm Southeast Of Nantucket

More Historic Weather Station data

Upgrade to MSW Pro to gain access to the past 30 days of data for over 8000 Wavebouys and Weather Stations around the globe.

Join Pro

Comparision Forecast

View Surf forecast
   
Mon 03/02 10:50am 8ft 10s 6s 27 34 mph 1012.8mb 43f 35f
9:50am 8.5ft 9s 7s 25 27 mph 1013.1mb 44f 37f
8:50am 6ft 8s 6s 22 27 mph 1013.2mb 44f 38f
7:50am 6ft 8s 6s 20 25 mph 1013.3mb 44f 39f
6:50am 5.5ft 7s 6s 20 25 mph 1013.9mb 44f 39f
5:50am 6ft 7s 6s 18 20 mph 1014.5mb 44f 39f
4:50am 6ft 7s 6s 16 18 mph 1014.7mb 43f 39f
3:50am 6ft 7s 6s 13 18 mph 1015mb 42f 39f
2:50am 4.5ft 6s 5s 13 16 mph 1015.7mb 42f 40f
1:50am 4.5ft 6s 5s 16 18 mph 1016.3mb 42f 45f
12:50am 3.5ft 5s 4s 20 25 mph 1016.8mb 43f 47f
Sun 03/01 11:50pm 3.5ft 4s 4s 25 29 mph 1017.3mb 43f 49f
10:50pm 2ft 9s 4s 13 16 mph 1019.9mb 43f 46f
9:50pm 2ft 10s 5s 13 16 mph 1022.5mb 44f 44f
8:50pm 1.6ft 9s 5s 11 13 mph 1024.8mb 44f 42f
7:50pm 1.6ft 10s 5s 11 13 mph 1026.9mb 44f 42f
6:50pm 1.6ft 8s 4s 11
mph
1028.5mb 44f 41f
5:50pm 1.6ft 8s 5s 7 9 mph 1029.7mb 44f 39f
4:50pm 1.6ft 8s 6s 2 4 mph 1031.3mb 44f 38f
3:50pm 2ft 9s 6s 4 7 mph 1032.6mb 43f 38f
2:50pm 2ft 9s 5s 7 11 mph 1032.6mb 41f 37f
1:50pm 2ft 9s 6s 9 11 mph 1033.8mb 41f 36f
12:50pm 2.5ft 8s 6s 9 11 mph 1035.2mb 41f 35f
11:50am 2.5ft 8s 6s 7 9 mph 1036.7mb 42f 33f
10:50am 2.5ft 9s 6s 7 9 mph 1037.7mb 42f 33f
9:50am 2.5ft 8s 6s 4 7 mph 1038.1mb 42f 33f
8:50am 2.5ft 9s 6s 4 7 mph 1039.2mb 42f 33f
7:50am 2.5ft 9s 6s 2 4 mph 1039.4mb 42f 32f
6:50am 2.5ft 8s 6s 2
mph
1039mb 42f 31f
5:50am 2.5ft 9s 6s 2 4 mph 1039.3mb 42f 30f
4:50am 2.5ft 8s 6s 4 7 mph 1039.5mb 41f 30f
3:50am 2.5ft 9s 6s 7 9 mph 1039mb 41f 29f
2:50am 2.5ft 9s 6s 7 9 mph 1038.7mb 41f 29f
1:50am 2.5ft 8s 6s 7 11 mph 1039.5mb 41f 29f
12:50am 3ft 8s 6s 7 9 mph 1040.2mb 41f 29f
Sat 02/28 11:50pm 3ft 8s 6s 7 11 mph 1040.3mb 42f 29f
10:50pm 3ft 9s 6s 7 11 mph 1040.5mb 42f 29f
9:50pm 3ft 9s 5s 7 9 mph 1040.6mb 42f 29f
8:50pm 3.5ft 9s 6s 7 9 mph 1040.5mb 43f 29f
7:50pm 3ft 10s 5s 7 9 mph 1040.4mb 43f 29f
6:50pm 3ft 8s 5s 7 9 mph 1040.5mb 43f 29f
5:50pm 3.5ft 10s 6s 7 11 mph 1040.2mb 43f 29f
4:50pm 3.5ft 9s 6s 7 9 mph 1039.7mb 43f 30f
3:50pm 3.5ft 10s 6s 7 11 mph 1039.4mb 42f 31f
2:50pm 4ft 9s 6s 7 11 mph 1039.3mb 41f 30f
1:50pm 4.5ft 9s 6s 9 13 mph 1039.2mb 41f 30f
12:50pm 4.5ft 9s 6s 9 11 mph 1039.4mb 41f 30f
11:50am 4.5ft 9s 6s 11 13 mph 1039.8mb 41f 30f
10:50am 4.5ft 10s 6s 9 11 mph 1039.8mb 41f 30f
9:50am 5ft 10s 6s 11 13 mph 1039.3mb 42f 31f
8:50am 5ft 11s 6s 7 11 mph 1039mb 42f 31f
7:50am 5ft 10s 6s 7 11 mph 1038.3mb 42f 31f
6:50am 5ft 10s 6s 9 13 mph 1037.2mb 42f 30f
5:50am 5ft 10s 6s 9 16 mph 1036.1mb 42f 30f
4:50am 4.5ft 10s 6s 13 20 mph 1035.3mb 42f 30f
3:50am 5ft 10s 6s 13 22 mph 1034.3mb 42f 30f
2:50am 5ft 10s 6s 11 18 mph 1034mb 41f 31f
1:50am 5.5ft 11s 7s 16 18 mph 1033.5mb 41f 31f
12:50am 6ft 11s 7s 13 18 mph 1032.8mb 40f 30f
Fri 02/27 11:50pm 6ft 10s 7s 13 18 mph 1032.6mb 40f 30f
10:50pm 6.5ft 10s 7s 16 20 mph 1032.1mb 41f 30f
9:50pm 7ft 11s 8s 16 22 mph 1031.5mb 42f 29f
8:50pm 6.5ft 11s 7s 13 18 mph 1030.8mb 42f 30f
7:50pm 6.5ft 10s 7s 13 18 mph 1030mb 42f 30f
6:50pm 6ft 11s 7s 11 16 mph 1029.9mb 43f 30f
5:50pm 7.5ft 11s 8s 11 16 mph 1029mb 43f 30f
4:50pm 7ft 11s 8s 11 16 mph 1028.1mb 43f 30f
3:50pm 7ft 11s 8s 11 13 mph 1027.6mb 43f 31f
2:50pm 7ft 10s 8s 11 16 mph 1026.8mb 42f 30f
1:50pm 8.5ft 11s 8s 9 16 mph 1026.2mb 41f 30f
12:50pm 9ft 11s 8s 9 13 mph 1025.6mb 41f 30f
11:50am 8.5ft 11s 7s 11 16 mph 1026.2mb 41f 31f
10:50am 8.5ft 10s 7s 11 16 mph 1025.8mb 42f 31f
9:50am 9ft 11s 7s 16 20 mph 1025.1mb 42f 31f
8:50am 8ft 11s 7s 11 16 mph 1024.8mb 40f 31f
7:50am 8.5ft 12s 7s 11 16 mph 1024mb 40f 31f
6:50am 8ft 11s 7s 11 16 mph 1022.9mb 40f 31f
5:50am 8ft 11s 7s 11 13 mph 1021.9mb 40f 31f
4:50am 8ft 11s 7s 13 20 mph 1021.1mb 40f 31f
3:50am 8.5ft 11s 7s 13 18 mph 1019.6mb 40f 32f
2:50am 9ft 11s 7s 16 20 mph 1018.4mb 41f 32f
1:50am 8.5ft 7s 7s 18 22 mph 1017.6mb 41f 32f
12:50am 9ft 7s 6s 20 25 mph 1016.8mb 41f 32f
Thu 02/26 11:50pm 10ft 8s 6s 22 25 mph 1016.3mb 41f 33f
10:50pm 9ft 8s 6s 25 29 mph 1015.3mb 41f 33f
9:50pm 10.5ft 8s 6s 22 27 mph 1014.6mb 40f 33f
8:50pm 11ft 8s 6s 22 27 mph 1013.4mb 40f 34f
7:50pm 10ft 7s 6s 25 29 mph 1012.1mb 40f 34f
6:50pm 9ft 7s 6s 27 31 mph 1010.7mb 40f 34f
5:50pm 7.5ft 6s 5s 29 36 mph 1008.6mb 40f 35f
4:50pm 7ft 6s 5s 29 36 mph 1007.2mb 40f 36f